Terminal Aerodrome Forecast
Issued by NWS

Home | Current Version | Previous Version | Text Only | Print | Product List | Glossary On
Versions: 1 2 3 4 5 6 7 8 9 10 11 12 13 14 15 16 17 18 19 20 21 22 23 24 25 26 27 28 29 30 31 32 33 34 35 36 37 38 39 40 41 42 43 44 45 46 47 48 49
000
FTUS45 KBOU 301120
TAFAPA
TAF
KAPA 301120Z 3012/3112 VRB05KT P6SM SCT100 BKN140
     FM301500 21006KT P6SM SCT100 BKN140
     FM301800 34006KT P6SM SCT100 BKN140
     FM302100 02006KT P6SM SCT070 BKN100
     FM310300 04006KT P6SM VCSH SCT050 BKN080
     FM310600 04006KT P6SM VCSH SCT020 BKN030
      TEMPO 3107/3111 3SM -SN BR BKN020=

USA.gov is the U.S. government's official web portal to all federal, state and local government web resources and services.